Terminal Aerodrome Forecast
Issued by NWS

Home | Current Version | Previous Version | Text Only | Print | Product List | Glossary On
Versions: 1 2 3 4 5 6 7 8 9 10 11 12 13 14 15 16
198
FTUS46 KPDT 071120
TAFALW
TAF
KALW 071120Z 0712/0812 12005KT P6SM SCT110
     FM071900 VRB04KT P6SM SCT070 BKN110
     FM080400 09004KT P6SM BKN100
     FM080900 12003KT 4SM BR BKN100=

USA.gov is the U.S. government's official web portal to all federal, state and local government web resources and services.